sensor_id;sensor_type;location;lat;lon;timestamp;temperature;humidity
22073;DHT22;11202;50.916;4.698;2022-09-09T00:00:22;15.30;99.90
22073;DHT22;11202;50.916;4.698;2022-09-09T00:03:05;15.30;99.90
22073;DHT22;11202;50.916;4.698;2022-09-09T00:05:48;15.40;99.90
22073;DHT22;11202;50.916;4.698;2022-09-09T00:08:23;15.30;99.90
22073;DHT22;11202;50.916;4.698;2022-09-09T00:10:58;15.30;99.90
22073;DHT22;11202;50.916;4.698;2022-09-09T00:13:39;15.20;99.90
22073;DHT22;11202;50.916;4.698;2022-09-09T00:16:17;15.20;99.90
22073;DHT22;11202;50.916;4.698;2022-09-09T00:19:02;15.00;99.90
22073;DHT22;11202;50.916;4.698;2022-09-09T00:21:39;15.10;99.90
22073;DHT22;11202;50.916;4.698;2022-09-09T00:26:52;15.00;99.90
22073;DHT22;11202;50.916;4.698;2022-09-09T00:29:33;15.20;99.90
22073;DHT22;11202;50.916;4.698;2022-09-09T00:32:12;15.00;99.90
22073;DHT22;11202;50.916;4.698;2022-09-09T00:34:51;15.10;99.90
22073;DHT22;11202;50.916;4.698;2022-09-09T00:37:20;15.20;99.90
22073;DHT22;11202;50.916;4.698;2022-09-09T00:39:48;15.20;99.90
22073;DHT22;11202;50.916;4.698;2022-09-09T00:42:26;15.30;99.90
22073;DHT22;11202;50.916;4.698;2022-09-09T00:47:50;15.20;99.90
22073;DHT22;11202;50.916;4.698;2022-09-09T00:50:43;15.20;99.90
22073;DHT22;11202;50.916;4.698;2022-09-09T00:56:29;15.30;99.90
22073;DHT22;11202;50.916;4.698;2022-09-09T00:59:22;15.30;99.90
22073;DHT22;11202;50.916;4.698;2022-09-09T01:01:53;15.40;99.90
22073;DHT22;11202;50.916;4.698;2022-09-09T01:04:27;15.30;99.90
22073;DHT22;11202;50.916;4.698;2022-09-09T01:07:06;15.30;99.90
22073;DHT22;11202;50.916;4.698;2022-09-09T01:12:28;15.20;99.90
22073;DHT22;11202;50.916;4.698;2022-09-09T01:15:10;15.20;99.90
22073;DHT22;11202;50.916;4.698;2022-09-09T01:18:14;15.20;99.90
22073;DHT22;11202;50.916;4.698;2022-09-09T01:26:30;15.20;99.90
22073;DHT22;11202;50.916;4.698;2022-09-09T01:29:00;15.20;99.90
22073;DHT22;11202;50.916;4.698;2022-09-09T01:31:30;15.20;99.90
22073;DHT22;11202;50.916;4.698;2022-09-09T01:33:57;15.20;99.90
22073;DHT22;11202;50.916;4.698;2022-09-09T01:36:59;15.30;99.90
22073;DHT22;11202;50.916;4.698;2022-09-09T01:39:27;15.30;99.90
22073;DHT22;11202;50.916;4.698;2022-09-09T01:41:54;15.30;99.90
22073;DHT22;11202;50.916;4.698;2022-09-09T01:44:22;15.20;99.90
22073;DHT22;11202;50.916;4.698;2022-09-09T01:46:47;15.20;99.90
22073;DHT22;11202;50.916;4.698;2022-09-09T01:49:17;15.20;99.90
22073;DHT22;11202;50.916;4.698;2022-09-09T01:51:43;15.30;99.90
22073;DHT22;11202;50.916;4.698;2022-09-09T01:54:10;15.30;99.90
22073;DHT22;11202;50.916;4.698;2022-09-09T01:57:06;15.20;99.90
22073;DHT22;11202;50.916;4.698;2022-09-09T01:59:45;15.20;99.90
22073;DHT22;11202;50.916;4.698;2022-09-09T02:02:18;15.10;99.90
22073;DHT22;11202;50.916;4.698;2022-09-09T02:04:52;15.20;99.90
22073;DHT22;11202;50.916;4.698;2022-09-09T02:07:33;15.20;99.90
22073;DHT22;11202;50.916;4.698;2022-09-09T02:12:41;15.20;99.90
22073;DHT22;11202;50.916;4.698;2022-09-09T02:15:17;15.20;99.90
22073;DHT22;11202;50.916;4.698;2022-09-09T02:17:46;15.20;99.90
22073;DHT22;11202;50.916;4.698;2022-09-09T02:20:14;15.20;99.90
22073;DHT22;11202;50.916;4.698;2022-09-09T02:22:43;15.30;99.90
22073;DHT22;11202;50.916;4.698;2022-09-09T02:25:14;15.20;99.90
22073;DHT22;11202;50.916;4.698;2022-09-09T02:27:43;15.20;99.90
22073;DHT22;11202;50.916;4.698;2022-09-09T02:30:11;15.20;99.90
22073;DHT22;11202;50.916;4.698;2022-09-09T02:32:38;15.20;99.90
22073;DHT22;11202;50.916;4.698;2022-09-09T02:35:14;15.30;99.90
22073;DHT22;11202;50.916;4.698;2022-09-09T02:37:43;15.30;99.90
22073;DHT22;11202;50.916;4.698;2022-09-09T02:40:12;15.30;99.90
22073;DHT22;11202;50.916;4.698;2022-09-09T02:42:42;15.30;99.90
22073;DHT22;11202;50.916;4.698;2022-09-09T02:45:10;15.30;99.90
22073;DHT22;11202;50.916;4.698;2022-09-09T02:50:19;15.30;99.90
22073;DHT22;11202;50.916;4.698;2022-09-09T02:53:01;15.30;99.90
22073;DHT22;11202;50.916;4.698;2022-09-09T02:57:58;15.30;99.90
22073;DHT22;11202;50.916;4.698;2022-09-09T03:00:28;15.30;99.90
22073;DHT22;11202;50.916;4.698;2022-09-09T03:02:55;15.30;99.90
22073;DHT22;11202;50.916;4.698;2022-09-09T03:05:21;15.40;99.90
22073;DHT22;11202;50.916;4.698;2022-09-09T03:07:47;15.40;99.90
22073;DHT22;11202;50.916;4.698;2022-09-09T03:10:13;15.40;99.90
22073;DHT22;11202;50.916;4.698;2022-09-09T03:12:42;15.40;99.90
22073;DHT22;11202;50.916;4.698;2022-09-09T03:15:09;15.40;99.90
22073;DHT22;11202;50.916;4.698;2022-09-09T03:17:35;15.40;99.90
22073;DHT22;11202;50.916;4.698;2022-09-09T03:20:03;15.40;99.90
22073;DHT22;11202;50.916;4.698;2022-09-09T03:22:29;15.40;99.90
22073;DHT22;11202;50.916;4.698;2022-09-09T03:24:55;15.40;99.90
22073;DHT22;11202;50.916;4.698;2022-09-09T03:27:21;15.30;99.90
22073;DHT22;11202;50.916;4.698;2022-09-09T03:29:46;15.30;99.90
22073;DHT22;11202;50.916;4.698;2022-09-09T03:32:13;15.20;99.90
22073;DHT22;11202;50.916;4.698;2022-09-09T03:34:42;15.20;99.90
22073;DHT22;11202;50.916;4.698;2022-09-09T03:37:08;15.30;99.90
22073;DHT22;11202;50.916;4.698;2022-09-09T03:39:34;15.30;99.90
22073;DHT22;11202;50.916;4.698;2022-09-09T03:42:00;15.30;99.90
22073;DHT22;11202;50.916;4.698;2022-09-09T03:44:29;15.20;99.90
22073;DHT22;11202;50.916;4.698;2022-09-09T03:46:55;15.30;99.90
22073;DHT22;11202;50.916;4.698;2022-09-09T03:49:21;15.40;99.90
22073;DHT22;11202;50.916;4.698;2022-09-09T03:51:48;15.40;99.90
22073;DHT22;11202;50.916;4.698;2022-09-09T03:54:13;15.40;99.90
22073;DHT22;11202;50.916;4.698;2022-09-09T03:56:39;15.30;99.90
22073;DHT22;11202;50.916;4.698;2022-09-09T03:59:07;15.40;99.90
22073;DHT22;11202;50.916;4.698;2022-09-09T04:01:34;15.40;99.90
22073;DHT22;11202;50.916;4.698;2022-09-09T04:04:00;15.40;99.90
22073;DHT22;11202;50.916;4.698;2022-09-09T04:06:27;15.30;99.90
22073;DHT22;11202;50.916;4.698;2022-09-09T04:08:53;15.30;99.90
22073;DHT22;11202;50.916;4.698;2022-09-09T04:11:20;15.40;99.90
22073;DHT22;11202;50.916;4.698;2022-09-09T04:13:46;15.40;99.90
22073;DHT22;11202;50.916;4.698;2022-09-09T04:16:12;15.40;99.90
22073;DHT22;11202;50.916;4.698;2022-09-09T04:18:43;15.30;99.90
22073;DHT22;11202;50.916;4.698;2022-09-09T04:21:10;15.20;99.90
22073;DHT22;11202;50.916;4.698;2022-09-09T04:23:37;15.20;99.90
22073;DHT22;11202;50.916;4.698;2022-09-09T04:26:04;15.20;99.90
22073;DHT22;11202;50.916;4.698;2022-09-09T04:28:34;15.30;99.90
22073;DHT22;11202;50.916;4.698;2022-09-09T04:31:05;15.30;99.90
22073;DHT22;11202;50.916;4.698;2022-09-09T04:33:32;15.30;99.90
22073;DHT22;11202;50.916;4.698;2022-09-09T04:35:58;15.30;99.90
22073;DHT22;11202;50.916;4.698;2022-09-09T04:38:26;15.30;99.90
22073;DHT22;11202;50.916;4.698;2022-09-09T04:40:55;15.40;99.90
22073;DHT22;11202;50.916;4.698;2022-09-09T04:43:21;15.40;99.90
22073;DHT22;11202;50.916;4.698;2022-09-09T04:45:49;15.50;99.90
22073;DHT22;11202;50.916;4.698;2022-09-09T04:48:16;15.50;99.90
22073;DHT22;11202;50.916;4.698;2022-09-09T04:50:53;15.50;99.90
22073;DHT22;11202;50.916;4.698;2022-09-09T04:53:18;15.40;99.90
22073;DHT22;11202;50.916;4.698;2022-09-09T04:55:47;15.30;99.90
22073;DHT22;11202;50.916;4.698;2022-09-09T04:58:13;15.30;99.90
22073;DHT22;11202;50.916;4.698;2022-09-09T05:00:39;15.20;99.90
22073;DHT22;11202;50.916;4.698;2022-09-09T05:03:06;15.30;99.90
22073;DHT22;11202;50.916;4.698;2022-09-09T05:05:34;15.30;99.90
22073;DHT22;11202;50.916;4.698;2022-09-09T05:08:07;15.30;99.90
22073;DHT22;11202;50.916;4.698;2022-09-09T05:10:37;15.20;99.90
22073;DHT22;11202;50.916;4.698;2022-09-09T05:13:03;15.20;99.90
22073;DHT22;11202;50.916;4.698;2022-09-09T05:15:30;15.20;99.90
22073;DHT22;11202;50.916;4.698;2022-09-09T05:18:00;15.30;99.90
22073;DHT22;11202;50.916;4.698;2022-09-09T05:20:27;15.30;99.90
22073;DHT22;11202;50.916;4.698;2022-09-09T05:22:56;15.30;99.90
22073;DHT22;11202;50.916;4.698;2022-09-09T05:25:23;15.30;99.90
22073;DHT22;11202;50.916;4.698;2022-09-09T05:27:51;15.30;99.90
22073;DHT22;11202;50.916;4.698;2022-09-09T05:30:18;15.30;99.90
22073;DHT22;11202;50.916;4.698;2022-09-09T05:32:50;15.20;99.90
22073;DHT22;11202;50.916;4.698;2022-09-09T05:35:16;15.30;99.90
22073;DHT22;11202;50.916;4.698;2022-09-09T05:37:43;15.40;99.90
22073;DHT22;11202;50.916;4.698;2022-09-09T05:40:11;15.50;99.90
22073;DHT22;11202;50.916;4.698;2022-09-09T05:42:37;15.50;99.90
22073;DHT22;11202;50.916;4.698;2022-09-09T05:45:04;15.70;99.90
22073;DHT22;11202;50.916;4.698;2022-09-09T05:47:30;15.80;99.90
22073;DHT22;11202;50.916;4.698;2022-09-09T05:49:56;16.00;99.90
22073;DHT22;11202;50.916;4.698;2022-09-09T05:52:23;16.20;99.90
22073;DHT22;11202;50.916;4.698;2022-09-09T05:54:50;16.50;99.90
22073;DHT22;11202;50.916;4.698;2022-09-09T05:57:19;16.60;99.90
22073;DHT22;11202;50.916;4.698;2022-09-09T05:59:45;16.80;99.90
22073;DHT22;11202;50.916;4.698;2022-09-09T06:02:11;17.20;99.90
22073;DHT22;11202;50.916;4.698;2022-09-09T06:04:38;17.50;99.90
22073;DHT22;11202;50.916;4.698;2022-09-09T06:07:05;17.40;99.90
22073;DHT22;11202;50.916;4.698;2022-09-09T06:09:33;17.40;99.90
22073;DHT22;11202;50.916;4.698;2022-09-09T06:11:59;17.20;99.90
22073;DHT22;11202;50.916;4.698;2022-09-09T06:14:25;17.00;99.90
22073;DHT22;11202;50.916;4.698;2022-09-09T06:16:52;16.90;99.90
22073;DHT22;11202;50.916;4.698;2022-09-09T06:19:18;16.70;99.90
22073;DHT22;11202;50.916;4.698;2022-09-09T06:21:46;16.60;99.90
22073;DHT22;11202;50.916;4.698;2022-09-09T06:24:15;16.50;99.90
22073;DHT22;11202;50.916;4.698;2022-09-09T06:26:42;16.40;99.90
22073;DHT22;11202;50.916;4.698;2022-09-09T06:29:09;16.40;99.90
22073;DHT22;11202;50.916;4.698;2022-09-09T06:31:36;16.50;99.90
22073;DHT22;11202;50.916;4.698;2022-09-09T06:34:05;16.60;99.90
22073;DHT22;11202;50.916;4.698;2022-09-09T06:36:36;16.60;99.90
22073;DHT22;11202;50.916;4.698;2022-09-09T06:39:05;16.80;99.90
22073;DHT22;11202;50.916;4.698;2022-09-09T06:41:32;16.90;99.90
22073;DHT22;11202;50.916;4.698;2022-09-09T06:43:58;17.00;99.90
22073;DHT22;11202;50.916;4.698;2022-09-09T06:46:28;17.30;99.90
22073;DHT22;11202;50.916;4.698;2022-09-09T06:48:56;17.70;99.90
22073;DHT22;11202;50.916;4.698;2022-09-09T06:51:34;17.50;99.90
22073;DHT22;11202;50.916;4.698;2022-09-09T06:54:02;17.50;99.90
22073;DHT22;11202;50.916;4.698;2022-09-09T06:56:37;17.30;99.90
22073;DHT22;11202;50.916;4.698;2022-09-09T06:59:07;17.30;99.90
22073;DHT22;11202;50.916;4.698;2022-09-09T07:01:37;17.30;99.90
22073;DHT22;11202;50.916;4.698;2022-09-09T07:04:04;17.30;99.90
22073;DHT22;11202;50.916;4.698;2022-09-09T07:06:36;17.30;99.90
22073;DHT22;11202;50.916;4.698;2022-09-09T07:09:07;17.20;99.90
22073;DHT22;11202;50.916;4.698;2022-09-09T07:11:40;17.20;99.90
22073;DHT22;11202;50.916;4.698;2022-09-09T07:14:07;17.20;99.90
22073;DHT22;11202;50.916;4.698;2022-09-09T07:16:34;17.20;99.90
22073;DHT22;11202;50.916;4.698;2022-09-09T07:19:04;17.10;99.90
22073;DHT22;11202;50.916;4.698;2022-09-09T07:21:32;17.00;99.90
22073;DHT22;11202;50.916;4.698;2022-09-09T07:23:58;17.00;99.90
22073;DHT22;11202;50.916;4.698;2022-09-09T07:26:27;17.00;99.90
22073;DHT22;11202;50.916;4.698;2022-09-09T07:28:54;17.00;99.90
22073;DHT22;11202;50.916;4.698;2022-09-09T07:31:27;17.00;99.90
22073;DHT22;11202;50.916;4.698;2022-09-09T07:33:53;17.10;99.90
22073;DHT22;11202;50.916;4.698;2022-09-09T07:36:21;17.10;99.90
22073;DHT22;11202;50.916;4.698;2022-09-09T07:38:55;17.10;99.90
22073;DHT22;11202;50.916;4.698;2022-09-09T07:41:24;17.00;99.90
22073;DHT22;11202;50.916;4.698;2022-09-09T07:43:51;17.00;99.90
22073;DHT22;11202;50.916;4.698;2022-09-09T07:46:20;17.00;99.90
22073;DHT22;11202;50.916;4.698;2022-09-09T07:48:51;17.00;99.90
22073;DHT22;11202;50.916;4.698;2022-09-09T07:51:20;17.00;99.90
22073;DHT22;11202;50.916;4.698;2022-09-09T07:53:47;17.00;99.90
22073;DHT22;11202;50.916;4.698;2022-09-09T07:56:15;17.00;99.90
22073;DHT22;11202;50.916;4.698;2022-09-09T07:58:47;16.90;99.90
22073;DHT22;11202;50.916;4.698;2022-09-09T08:01:19;16.80;99.90
22073;DHT22;11202;50.916;4.698;2022-09-09T08:03:52;16.70;99.90
22073;DHT22;11202;50.916;4.698;2022-09-09T08:06:18;16.60;99.90
22073;DHT22;11202;50.916;4.698;2022-09-09T08:08:50;16.70;99.90
22073;DHT22;11202;50.916;4.698;2022-09-09T08:11:17;16.90;99.90
22073;DHT22;11202;50.916;4.698;2022-09-09T08:13:43;16.90;99.90
22073;DHT22;11202;50.916;4.698;2022-09-09T08:18:37;16.90;99.90
22073;DHT22;11202;50.916;4.698;2022-09-09T08:21:17;17.10;99.90
22073;DHT22;11202;50.916;4.698;2022-09-09T08:23:45;17.20;99.90
22073;DHT22;11202;50.916;4.698;2022-09-09T08:26:17;17.30;99.90
22073;DHT22;11202;50.916;4.698;2022-09-09T08:28:44;17.50;99.90
22073;DHT22;11202;50.916;4.698;2022-09-09T08:31:16;17.70;99.90
22073;DHT22;11202;50.916;4.698;2022-09-09T08:33:43;18.20;99.90
22073;DHT22;11202;50.916;4.698;2022-09-09T08:36:18;18.30;99.90
22073;DHT22;11202;50.916;4.698;2022-09-09T08:38:47;18.30;99.90
22073;DHT22;11202;50.916;4.698;2022-09-09T08:41:49;18.30;99.90
22073;DHT22;11202;50.916;4.698;2022-09-09T08:44:39;18.50;99.90
22073;DHT22;11202;50.916;4.698;2022-09-09T08:58:17;18.10;99.90
22073;DHT22;11202;50.916;4.698;2022-09-09T09:09:01;17.40;99.90
22073;DHT22;11202;50.916;4.698;2022-09-09T09:11:40;17.30;99.90
22073;DHT22;11202;50.916;4.698;2022-09-09T09:19:19;17.00;99.90
22073;DHT22;11202;50.916;4.698;2022-09-09T09:21:54;16.90;99.90
22073;DHT22;11202;50.916;4.698;2022-09-09T09:27:14;17.10;99.90
22073;DHT22;11202;50.916;4.698;2022-09-09T09:29:41;17.10;99.90
22073;DHT22;11202;50.916;4.698;2022-09-09T09:32:12;17.20;99.90
22073;DHT22;11202;50.916;4.698;2022-09-09T09:34:39;17.20;99.90
22073;DHT22;11202;50.916;4.698;2022-09-09T09:37:23;17.30;99.90
22073;DHT22;11202;50.916;4.698;2022-09-09T09:39:53;17.30;99.90
22073;DHT22;11202;50.916;4.698;2022-09-09T09:42:19;17.40;99.90
22073;DHT22;11202;50.916;4.698;2022-09-09T09:44:45;17.40;99.90
22073;DHT22;11202;50.916;4.698;2022-09-09T09:47:19;17.30;99.90
22073;DHT22;11202;50.916;4.698;2022-09-09T09:52:23;17.10;99.90
22073;DHT22;11202;50.916;4.698;2022-09-09T09:54:50;17.20;99.90
22073;DHT22;11202;50.916;4.698;2022-09-09T09:57:18;17.20;99.90
22073;DHT22;11202;50.916;4.698;2022-09-09T09:59:49;17.20;99.90
22073;DHT22;11202;50.916;4.698;2022-09-09T10:02:21;17.20;99.90
22073;DHT22;11202;50.916;4.698;2022-09-09T10:05:08;17.10;99.90
22073;DHT22;11202;50.916;4.698;2022-09-09T10:07:37;17.10;99.90
22073;DHT22;11202;50.916;4.698;2022-09-09T10:10:04;17.00;99.90
22073;DHT22;11202;50.916;4.698;2022-09-09T10:15:22;17.10;99.90
22073;DHT22;11202;50.916;4.698;2022-09-09T10:20:58;17.10;99.90
22073;DHT22;11202;50.916;4.698;2022-09-09T10:35:10;17.40;99.90
22073;DHT22;11202;50.916;4.698;2022-09-09T10:40:13;17.70;99.90
22073;DHT22;11202;50.916;4.698;2022-09-09T10:42:46;17.70;99.90
22073;DHT22;11202;50.916;4.698;2022-09-09T10:45:22;17.80;99.90
22073;DHT22;11202;50.916;4.698;2022-09-09T10:50:42;17.80;99.90
22073;DHT22;11202;50.916;4.698;2022-09-09T10:53:28;17.70;99.90
22073;DHT22;11202;50.916;4.698;2022-09-09T10:56:07;17.80;99.90
22073;DHT22;11202;50.916;4.698;2022-09-09T10:58:54;17.90;99.90
22073;DHT22;11202;50.916;4.698;2022-09-09T11:06:41;18.20;99.90
22073;DHT22;11202;50.916;4.698;2022-09-09T11:09:17;18.30;99.90
22073;DHT22;11202;50.916;4.698;2022-09-09T11:11:53;18.40;99.90
22073;DHT22;11202;50.916;4.698;2022-09-09T11:14:42;18.60;99.90
22073;DHT22;11202;50.916;4.698;2022-09-09T11:17:14;19.00;99.90
22073;DHT22;11202;50.916;4.698;2022-09-09T11:19:43;19.30;99.90
22073;DHT22;11202;50.916;4.698;2022-09-09T11:22:30;19.40;99.90
22073;DHT22;11202;50.916;4.698;2022-09-09T11:25:18;19.40;99.90
22073;DHT22;11202;50.916;4.698;2022-09-09T11:38:51;19.70;99.90
22073;DHT22;11202;50.916;4.698;2022-09-09T11:41:21;19.80;99.90
22073;DHT22;11202;50.916;4.698;2022-09-09T11:43:51;20.00;99.90
22073;DHT22;11202;50.916;4.698;2022-09-09T11:46:20;20.20;99.90
22073;DHT22;11202;50.916;4.698;2022-09-09T11:49:02;20.30;99.90
22073;DHT22;11202;50.916;4.698;2022-09-09T11:51:30;20.30;99.90
22073;DHT22;11202;50.916;4.698;2022-09-09T11:54:25;20.40;99.90
22073;DHT22;11202;50.916;4.698;2022-09-09T11:56:46;20.50;99.90
22073;DHT22;11202;50.916;4.698;2022-09-09T12:01:56;19.90;99.90
22073;DHT22;11202;50.916;4.698;2022-09-09T12:04:50;19.90;99.90
22073;DHT22;11202;50.916;4.698;2022-09-09T12:07:35;19.60;99.90
22073;DHT22;11202;50.916;4.698;2022-09-09T12:10:28;19.60;99.90
22073;DHT22;11202;50.916;4.698;2022-09-09T12:12:54;19.60;99.90
22073;DHT22;11202;50.916;4.698;2022-09-09T12:15:23;19.50;99.90
22073;DHT22;11202;50.916;4.698;2022-09-09T12:17:53;19.70;99.90
22073;DHT22;11202;50.916;4.698;2022-09-09T12:26:16;19.90;99.90
22073;DHT22;11202;50.916;4.698;2022-09-09T12:28:54;19.80;99.90
22073;DHT22;11202;50.916;4.698;2022-09-09T12:37:02;20.20;99.90
22073;DHT22;11202;50.916;4.698;2022-09-09T12:39:34;20.00;99.90
22073;DHT22;11202;50.916;4.698;2022-09-09T12:42:01;19.90;99.90
22073;DHT22;11202;50.916;4.698;2022-09-09T12:44:29;20.00;99.90
22073;DHT22;11202;50.916;4.698;2022-09-09T12:47:01;20.10;99.90
22073;DHT22;11202;50.916;4.698;2022-09-09T12:49:37;20.10;99.90
22073;DHT22;11202;50.916;4.698;2022-09-09T12:52:07;20.00;99.90
22073;DHT22;11202;50.916;4.698;2022-09-09T12:54:35;19.80;99.90
22073;DHT22;11202;50.916;4.698;2022-09-09T12:57:04;19.60;99.90
22073;DHT22;11202;50.916;4.698;2022-09-09T12:59:39;19.40;99.90
22073;DHT22;11202;50.916;4.698;2022-09-09T13:02:22;19.30;99.90
22073;DHT22;11202;50.916;4.698;2022-09-09T13:04:49;19.40;99.90
22073;DHT22;11202;50.916;4.698;2022-09-09T13:07:16;20.10;99.90
22073;DHT22;11202;50.916;4.698;2022-09-09T13:09:45;20.60;99.90
22073;DHT22;11202;50.916;4.698;2022-09-09T13:12:18;20.80;99.90
22073;DHT22;11202;50.916;4.698;2022-09-09T13:14:47;20.50;99.90
22073;DHT22;11202;50.916;4.698;2022-09-09T13:17:26;20.20;99.90
22073;DHT22;11202;50.916;4.698;2022-09-09T13:19:54;20.10;99.90
22073;DHT22;11202;50.916;4.698;2022-09-09T13:22:39;20.20;99.90
22073;DHT22;11202;50.916;4.698;2022-09-09T13:27:37;21.10;99.90
22073;DHT22;11202;50.916;4.698;2022-09-09T13:33:00;21.30;99.90
22073;DHT22;11202;50.916;4.698;2022-09-09T13:35:27;21.10;99.90
22073;DHT22;11202;50.916;4.698;2022-09-09T13:37:53;20.90;99.90
22073;DHT22;11202;50.916;4.698;2022-09-09T13:40:21;20.90;99.90
22073;DHT22;11202;50.916;4.698;2022-09-09T13:42:52;20.90;99.90
22073;DHT22;11202;50.916;4.698;2022-09-09T13:45:22;21.00;99.90
22073;DHT22;11202;50.916;4.698;2022-09-09T13:47:49;20.90;99.90
22073;DHT22;11202;50.916;4.698;2022-09-09T13:50:25;21.00;99.90
22073;DHT22;11202;50.916;4.698;2022-09-09T13:52:54;20.90;99.90
22073;DHT22;11202;50.916;4.698;2022-09-09T13:55:25;21.00;99.90
22073;DHT22;11202;50.916;4.698;2022-09-09T13:57:53;21.20;99.90
22073;DHT22;11202;50.916;4.698;2022-09-09T14:00:22;20.90;99.90
22073;DHT22;11202;50.916;4.698;2022-09-09T14:02:49;20.70;99.90
22073;DHT22;11202;50.916;4.698;2022-09-09T14:05:16;20.50;99.90
22073;DHT22;11202;50.916;4.698;2022-09-09T14:07:43;20.40;99.90
22073;DHT22;11202;50.916;4.698;2022-09-09T14:10:09;20.30;99.90
22073;DHT22;11202;50.916;4.698;2022-09-09T14:12:35;20.40;99.90
22073;DHT22;11202;50.916;4.698;2022-09-09T14:15:02;20.60;99.90
22073;DHT22;11202;50.916;4.698;2022-09-09T14:17:28;21.00;99.90
22073;DHT22;11202;50.916;4.698;2022-09-09T14:19:55;21.60;99.90
22073;DHT22;11202;50.916;4.698;2022-09-09T14:22:24;21.60;99.90
22073;DHT22;11202;50.916;4.698;2022-09-09T14:24:51;21.40;99.90
22073;DHT22;11202;50.916;4.698;2022-09-09T14:27:16;21.00;99.90
22073;DHT22;11202;50.916;4.698;2022-09-09T14:29:44;20.90;99.90
22073;DHT22;11202;50.916;4.698;2022-09-09T14:32:10;21.00;99.90
22073;DHT22;11202;50.916;4.698;2022-09-09T14:34:40;21.20;99.90
22073;DHT22;11202;50.916;4.698;2022-09-09T14:37:05;21.40;99.90
22073;DHT22;11202;50.916;4.698;2022-09-09T14:39:31;21.30;99.90
22073;DHT22;11202;50.916;4.698;2022-09-09T14:41:57;21.20;99.90
22073;DHT22;11202;50.916;4.698;2022-09-09T14:44:23;20.90;99.90
22073;DHT22;11202;50.916;4.698;2022-09-09T14:46:49;20.70;99.90
22073;DHT22;11202;50.916;4.698;2022-09-09T14:49:19;20.70;99.90
22073;DHT22;11202;50.916;4.698;2022-09-09T14:51:45;20.70;99.90
22073;DHT22;11202;50.916;4.698;2022-09-09T14:54:11;20.70;99.90
22073;DHT22;11202;50.916;4.698;2022-09-09T14:56:37;20.50;99.90
22073;DHT22;11202;50.916;4.698;2022-09-09T14:59:05;20.60;99.90
22073;DHT22;11202;50.916;4.698;2022-09-09T15:01:31;20.70;99.90
22073;DHT22;11202;50.916;4.698;2022-09-09T15:04:03;21.10;99.90
22073;DHT22;11202;50.916;4.698;2022-09-09T15:06:31;21.20;99.90
22073;DHT22;11202;50.916;4.698;2022-09-09T15:09:01;21.10;99.90
22073;DHT22;11202;50.916;4.698;2022-09-09T15:11:28;21.10;99.90
22073;DHT22;11202;50.916;4.698;2022-09-09T15:13:56;21.10;99.90
22073;DHT22;11202;50.916;4.698;2022-09-09T15:16:26;21.00;99.90
22073;DHT22;11202;50.916;4.698;2022-09-09T15:18:54;21.10;99.90
22073;DHT22;11202;50.916;4.698;2022-09-09T15:21:23;21.30;99.90
22073;DHT22;11202;50.916;4.698;2022-09-09T15:23:52;21.40;99.90
22073;DHT22;11202;50.916;4.698;2022-09-09T15:26:20;21.40;99.90
22073;DHT22;11202;50.916;4.698;2022-09-09T15:28:47;21.30;99.90
22073;DHT22;11202;50.916;4.698;2022-09-09T15:31:17;20.90;99.90
22073;DHT22;11202;50.916;4.698;2022-09-09T15:33:54;20.70;99.90
22073;DHT22;11202;50.916;4.698;2022-09-09T15:36:28;20.70;99.90
22073;DHT22;11202;50.916;4.698;2022-09-09T15:38:55;20.80;99.90
22073;DHT22;11202;50.916;4.698;2022-09-09T15:41:22;21.10;99.90
22073;DHT22;11202;50.916;4.698;2022-09-09T15:43:51;21.00;99.90
22073;DHT22;11202;50.916;4.698;2022-09-09T15:48:44;20.80;99.90
22073;DHT22;11202;50.916;4.698;2022-09-09T15:51:11;20.90;99.90
22073;DHT22;11202;50.916;4.698;2022-09-09T15:53:39;20.90;99.90
22073;DHT22;11202;50.916;4.698;2022-09-09T15:56:06;20.80;99.90
22073;DHT22;11202;50.916;4.698;2022-09-09T15:58:34;20.80;99.90
22073;DHT22;11202;50.916;4.698;2022-09-09T16:01:10;20.70;99.90
22073;DHT22;11202;50.916;4.698;2022-09-09T16:03:40;20.70;99.90
22073;DHT22;11202;50.916;4.698;2022-09-09T16:06:11;20.50;99.90
22073;DHT22;11202;50.916;4.698;2022-09-09T16:08:40;20.30;99.90
22073;DHT22;11202;50.916;4.698;2022-09-09T16:11:12;20.20;99.90
22073;DHT22;11202;50.916;4.698;2022-09-09T16:13:41;20.40;99.90
22073;DHT22;11202;50.916;4.698;2022-09-09T16:16:08;20.40;99.90
22073;DHT22;11202;50.916;4.698;2022-09-09T16:18:54;20.50;99.90
22073;DHT22;11202;50.916;4.698;2022-09-09T16:23:52;20.30;99.90
22073;DHT22;11202;50.916;4.698;2022-09-09T16:26:22;20.10;99.90
22073;DHT22;11202;50.916;4.698;2022-09-09T16:28:49;20.00;99.90
22073;DHT22;11202;50.916;4.698;2022-09-09T16:31:24;19.90;99.90
22073;DHT22;11202;50.916;4.698;2022-09-09T16:33:51;19.70;99.90
22073;DHT22;11202;50.916;4.698;2022-09-09T16:36:28;19.70;99.90
22073;DHT22;11202;50.916;4.698;2022-09-09T16:38:58;19.50;99.90
22073;DHT22;11202;50.916;4.698;2022-09-09T16:41:26;19.50;99.90
22073;DHT22;11202;50.916;4.698;2022-09-09T16:43:56;19.50;99.90
22073;DHT22;11202;50.916;4.698;2022-09-09T16:46:24;19.50;99.90
22073;DHT22;11202;50.916;4.698;2022-09-09T16:48:50;19.40;99.90
22073;DHT22;11202;50.916;4.698;2022-09-09T16:51:24;19.40;99.90
22073;DHT22;11202;50.916;4.698;2022-09-09T16:53:52;19.30;99.90
22073;DHT22;11202;50.916;4.698;2022-09-09T16:56:21;19.20;99.90
22073;DHT22;11202;50.916;4.698;2022-09-09T16:58:53;18.60;99.90
22073;DHT22;11202;50.916;4.698;2022-09-09T17:01:21;18.10;99.90
22073;DHT22;11202;50.916;4.698;2022-09-09T17:03:47;18.00;99.90
22073;DHT22;11202;50.916;4.698;2022-09-09T17:06:14;18.00;99.90
22073;DHT22;11202;50.916;4.698;2022-09-09T17:08:41;18.00;99.90
22073;DHT22;11202;50.916;4.698;2022-09-09T17:11:18;18.00;99.90
22073;DHT22;11202;50.916;4.698;2022-09-09T17:13:47;18.00;99.90
22073;DHT22;11202;50.916;4.698;2022-09-09T17:16:15;17.90;99.90
22073;DHT22;11202;50.916;4.698;2022-09-09T17:18:42;18.00;99.90
22073;DHT22;11202;50.916;4.698;2022-09-09T17:21:13;18.00;99.90
22073;DHT22;11202;50.916;4.698;2022-09-09T17:23:40;18.10;99.90
22073;DHT22;11202;50.916;4.698;2022-09-09T17:26:08;18.20;99.90
22073;DHT22;11202;50.916;4.698;2022-09-09T17:28:35;18.30;99.90
22073;DHT22;11202;50.916;4.698;2022-09-09T17:31:02;18.30;99.90
22073;DHT22;11202;50.916;4.698;2022-09-09T17:33:30;18.30;99.90
22073;DHT22;11202;50.916;4.698;2022-09-09T17:36:01;18.30;99.90
22073;DHT22;11202;50.916;4.698;2022-09-09T17:38:27;18.20;99.90
22073;DHT22;11202;50.916;4.698;2022-09-09T17:41:13;18.00;99.90
22073;DHT22;11202;50.916;4.698;2022-09-09T17:43:39;18.10;99.90
22073;DHT22;11202;50.916;4.698;2022-09-09T17:46:30;18.10;99.90
22073;DHT22;11202;50.916;4.698;2022-09-09T17:48:59;18.10;99.90
22073;DHT22;11202;50.916;4.698;2022-09-09T17:51:28;18.00;99.90